createdAt,value
2023-02-27T00:00:27.529Z,0.41
2023-02-27T00:05:50.272Z,0.42
2023-02-27T00:10:53.076Z,0.39
2023-02-27T00:15:59.626Z,0.37
2023-02-27T00:21:02.530Z,0.36
2023-02-27T00:26:05.256Z,0.33
2023-02-27T00:31:08.217Z,0.29
2023-02-27T00:36:11.270Z,0.25
2023-02-27T00:41:14.500Z,0.22
2023-02-27T00:46:17.321Z,0.15
2023-02-27T00:51:21.991Z,0.13
2023-02-27T00:56:24.765Z,0.11
2023-02-27T01:01:30.076Z,0.05
2023-02-27T01:06:32.907Z,0.04
2023-02-27T01:11:35.700Z,0.05
2023-02-27T01:16:38.476Z,0.01
2023-02-27T01:21:42.120Z,-0.04
2023-02-27T01:26:44.920Z,-0.05
2023-02-27T01:31:49.217Z,-0.08
2023-02-27T01:36:52.110Z,-0.08
2023-02-27T01:41:54.887Z,-0.10
2023-02-27T01:46:57.775Z,-0.11
2023-02-27T01:52:08.904Z,-0.14
2023-02-27T01:57:11.802Z,-0.16
2023-02-27T02:02:20.011Z,-0.15
2023-02-27T02:07:23.147Z,-0.19
2023-02-27T02:12:30.225Z,-0.19
2023-02-27T02:18:11.527Z,-0.21
2023-02-27T02:23:32.791Z,-0.26
2023-02-27T02:29:50.015Z,-0.26
2023-02-27T02:35:11.345Z,-0.26
2023-02-27T02:40:40.927Z,-0.26
2023-02-27T02:46:24.317Z,-0.31
2023-02-27T02:52:00.675Z,-0.32
2023-02-27T02:57:21.235Z,-0.33
2023-02-27T03:02:27.807Z,-0.31
2023-02-27T03:07:40.976Z,-0.31
2023-02-27T03:12:48.628Z,-0.29
2023-02-27T03:18:24.655Z,-0.26
2023-02-27T03:23:35.422Z,-0.27
2023-02-27T03:28:41.535Z,-0.27
2023-02-27T03:33:49.356Z,-0.34
2023-02-27T03:39:00.453Z,-0.36
2023-02-27T03:44:38.496Z,-0.35
2023-02-27T03:49:41.288Z,-0.40
2023-02-27T03:54:57.191Z,-0.44
2023-02-27T03:59:59.968Z,-0.47
2023-02-27T04:05:02.697Z,-0.54
2023-02-27T04:10:31.811Z,-0.59
2023-02-27T04:16:01.703Z,-0.63
2023-02-27T04:21:18.940Z,-0.66
2023-02-27T04:26:32.168Z,-0.68
2023-02-27T04:31:54.265Z,-0.70
2023-02-27T04:37:11.213Z,-0.71
2023-02-27T04:42:16.587Z,-0.71
2023-02-27T04:47:19.399Z,-0.71
2023-02-27T04:52:33.476Z,-0.70
2023-02-27T04:58:02.621Z,-0.70
2023-02-27T05:03:14.106Z,-0.65
2023-02-27T05:08:24.122Z,-0.60
2023-02-27T05:13:32.183Z,-0.56
2023-02-27T05:18:35.071Z,-0.49
2023-02-27T05:24:13.914Z,-0.45
2023-02-27T05:29:38.233Z,-0.42
2023-02-27T05:34:54.888Z,-0.42
2023-02-27T05:40:08.381Z,-0.43
2023-02-27T05:45:18.214Z,-0.41
2023-02-27T05:50:25.310Z,-0.39
2023-02-27T05:55:32.847Z,-0.41
2023-02-27T06:00:43.281Z,-0.46
2023-02-27T06:05:46.133Z,-0.50
2023-02-27T06:10:51.923Z,-0.49
2023-02-27T06:15:55.006Z,-0.48
2023-02-27T06:20:57.844Z,-0.57
2023-02-27T06:26:01.019Z,-0.56
2023-02-27T06:31:04.136Z,-0.56
2023-02-27T06:36:07.135Z,-0.54
2023-02-27T06:41:09.936Z,-0.48
2023-02-27T06:46:12.763Z,-0.48
2023-02-27T06:51:15.646Z,-0.41
2023-02-27T06:56:18.866Z,-0.36
2023-02-27T07:01:21.770Z,-0.34
2023-02-27T07:07:32.101Z,-0.24
2023-02-27T07:11:47.312Z,-0.18
2023-02-27T07:16:54.055Z,-0.18
2023-02-27T07:21:57.524Z,-0.17
2023-02-27T07:27:00.490Z,-0.35
2023-02-27T07:32:03.503Z,-0.49
2023-02-27T07:37:06.898Z,-0.62
2023-02-27T07:42:09.756Z,-0.66
2023-02-27T07:47:12.648Z,-0.69
2023-02-27T07:52:15.367Z,-0.69
2023-02-27T07:57:18.387Z,-0.69
2023-02-27T08:02:21.232Z,-0.68
2023-02-27T08:07:25.111Z,-0.64
2023-02-27T08:12:27.877Z,-0.59
2023-02-27T08:17:30.587Z,-0.62
2023-02-27T08:22:34.488Z,-0.62
2023-02-27T08:27:38.474Z,-0.55
2023-02-27T08:32:41.908Z,-0.50
2023-02-27T08:37:45.004Z,-0.50
2023-02-27T08:42:47.822Z,-0.47
2023-02-27T08:47:51.912Z,-0.35
2023-02-27T08:52:54.776Z,-0.25
2023-02-27T08:57:57.966Z,-0.10
2023-02-27T09:03:01.535Z,0.06
2023-02-27T09:08:05.172Z,0.14
2023-02-27T09:13:08.197Z,0.51
2023-02-27T09:18:11.092Z,0.84
2023-02-27T09:23:13.899Z,0.94
2023-02-27T09:28:17.307Z,1.20
2023-02-27T09:33:20.456Z,1.28
2023-02-27T09:38:23.280Z,1.29
2023-02-27T09:43:40.811Z,1.22
2023-02-27T09:48:52.652Z,1.28
2023-02-27T09:53:58.915Z,1.28
2023-02-27T09:59:36.715Z,1.36
2023-02-27T10:04:51.612Z,1.56
2023-02-27T10:10:39.409Z,1.72
2023-02-27T10:15:47.447Z,1.72
2023-02-27T10:21:00.297Z,1.71
2023-02-27T10:26:04.272Z,1.94
2023-02-27T10:31:21.171Z,2.05
2023-02-27T10:36:33.573Z,2.05
2023-02-27T10:41:40.034Z,1.92
2023-02-27T10:46:43.246Z,1.87
2023-02-27T10:52:10.728Z,1.79
2023-02-27T10:57:46.833Z,1.52
2023-02-27T11:02:49.621Z,1.53
2023-02-27T11:07:52.604Z,1.65
2023-02-27T11:13:07.244Z,1.72
2023-02-27T11:18:29.350Z,1.63
2023-02-27T11:23:34.067Z,1.43
2023-02-27T11:28:37.219Z,1.37
2023-02-27T11:33:47.891Z,1.53
2023-02-27T11:38:53.968Z,1.77
2023-02-27T11:43:57.536Z,1.98
2023-02-27T11:49:08.323Z,1.76
2023-02-27T11:54:38.226Z,1.78
2023-02-27T11:59:52.714Z,1.85
2023-02-27T12:05:02.731Z,1.76
2023-02-27T12:11:12.424Z,1.69
2023-02-27T12:16:50.659Z,1.69
2023-02-27T12:22:06.990Z,1.62
2023-02-27T12:27:34.299Z,1.62
2023-02-27T12:33:01.824Z,1.65
2023-02-27T12:38:09.909Z,1.69
2023-02-27T12:43:52.673Z,1.70
2023-02-27T12:49:19.016Z,1.60
2023-02-27T12:54:39.364Z,1.54
2023-02-27T13:00:07.849Z,1.45
2023-02-27T13:05:53.833Z,1.39
2023-02-27T13:11:21.916Z,1.25
2023-02-27T13:16:37.711Z,1.16
2023-02-27T13:21:48.021Z,1.08
2023-02-27T13:27:00.147Z,0.90
2023-02-27T13:32:44.396Z,0.87
2023-02-27T13:38:05.871Z,0.80
2023-02-27T13:43:51.342Z,0.81
2023-02-27T13:49:04.940Z,0.69
2023-02-27T13:54:14.010Z,0.59
2023-02-27T13:59:24.217Z,0.51
2023-02-27T14:04:29.910Z,0.45
2023-02-27T14:09:39.102Z,0.42
2023-02-27T14:14:45.782Z,0.38
2023-02-27T14:19:50.590Z,0.33
2023-02-27T14:25:02.976Z,0.30
2023-02-27T14:30:09.315Z,0.34
2023-02-27T14:35:12.106Z,0.40
2023-02-27T14:40:31.114Z,0.43
2023-02-27T14:45:33.954Z,0.30
2023-02-27T14:50:40.529Z,0.31
2023-02-27T14:55:45.542Z,0.34
2023-02-27T15:00:55.465Z,0.30
2023-02-27T15:06:01.381Z,0.23
2023-02-27T15:11:04.428Z,0.08
2023-02-27T15:16:26.202Z,0.11
2023-02-27T15:21:33.848Z,0.14
2023-02-27T15:26:40.624Z,0.10
2023-02-27T15:31:46.780Z,0.09
2023-02-27T15:36:55.886Z,0.11
2023-02-27T15:42:01.876Z,0.13
2023-02-27T15:47:06.327Z,0.06
2023-02-27T15:52:20.626Z,0.05
2023-02-27T15:57:24.578Z,0.01
2023-02-27T16:02:39.545Z,-0.10
2023-02-27T16:07:42.606Z,-0.15
2023-02-27T16:12:47.162Z,-0.23
2023-02-27T16:18:00.502Z,-0.28
2023-02-27T16:23:28.336Z,-0.27
2023-02-27T16:28:34.023Z,-0.25
2023-02-27T16:33:39.032Z,-0.21
2023-02-27T16:38:43.382Z,-0.22
2023-02-27T16:43:47.226Z,-0.26
2023-02-27T16:48:53.481Z,-0.26
2023-02-27T16:53:56.484Z,-0.26
2023-02-27T16:58:59.318Z,-0.25
2023-02-27T17:04:05.243Z,-0.27
2023-02-27T17:09:11.707Z,-0.27
2023-02-27T17:14:16.217Z,-0.29
2023-02-27T17:19:21.536Z,-0.37
2023-02-27T17:24:24.470Z,-0.42
2023-02-27T17:29:27.390Z,-0.40
2023-02-27T17:34:30.289Z,-0.39
2023-02-27T17:39:33.672Z,-0.42
2023-02-27T17:44:36.489Z,-0.40
2023-02-27T17:49:39.349Z,-0.39
2023-02-27T17:54:42.209Z,-0.37
2023-02-27T17:59:45.085Z,-0.35
2023-02-27T18:04:48.655Z,-0.33
2023-02-27T18:09:51.482Z,-0.32
2023-02-27T18:14:54.381Z,-0.35
2023-02-27T18:19:58.131Z,-0.35
2023-02-27T18:25:01.050Z,-0.33
2023-02-27T18:30:04.566Z,-0.35
2023-02-27T18:35:07.927Z,-0.36
2023-02-27T18:40:15.076Z,-0.38
2023-02-27T18:45:20.306Z,-0.39
2023-02-27T18:50:23.491Z,-0.38
2023-02-27T18:55:26.581Z,-0.37
2023-02-27T19:00:29.941Z,-0.39
2023-02-27T19:05:32.821Z,-0.38
2023-02-27T19:10:39.357Z,-0.38
2023-02-27T19:15:42.105Z,-0.38
2023-02-27T19:20:45.035Z,-0.37
2023-02-27T19:25:49.148Z,-0.38
2023-02-27T19:30:52.406Z,-0.37
2023-02-27T19:35:55.319Z,-0.36
2023-02-27T19:41:04.484Z,-0.37
2023-02-27T19:46:18.817Z,-0.38
2023-02-27T19:51:21.992Z,-0.41
2023-02-27T19:56:26.367Z,-0.44
2023-02-27T20:01:38.939Z,-0.49
2023-02-27T20:06:42.136Z,-0.54
2023-02-27T20:11:45.992Z,-0.56
2023-02-27T20:16:48.877Z,-0.56
2023-02-27T20:21:52.384Z,-0.57
2023-02-27T20:26:59.116Z,-0.58
2023-02-27T20:32:04.940Z,-0.61
2023-02-27T20:37:07.857Z,-0.70
2023-02-27T20:42:14.551Z,-0.84
2023-02-27T20:47:17.296Z,-1.03
2023-02-27T20:52:32.210Z,-1.23
2023-02-27T20:57:35.108Z,-1.49
2023-02-27T21:02:37.950Z,-1.69
2023-02-27T21:07:40.865Z,-1.80
2023-02-27T21:12:45.399Z,-1.92
2023-02-27T21:17:48.222Z,-2.08
2023-02-27T21:22:51.069Z,-2.18
2023-02-27T21:27:55.698Z,-2.27
2023-02-27T21:32:59.064Z,-2.36
2023-02-27T21:38:01.850Z,-2.46
2023-02-27T21:43:04.684Z,-2.56
2023-02-27T21:48:08.289Z,-2.63
2023-02-27T21:53:11.053Z,-2.67
2023-02-27T21:58:15.304Z,-2.72
2023-02-27T22:03:18.937Z,-2.80
2023-02-27T22:08:22.523Z,-2.85
2023-02-27T22:13:26.080Z,-2.88
2023-02-27T22:18:28.917Z,-2.86
2023-02-27T22:23:33.612Z,-2.87
2023-02-27T22:28:39.005Z,-2.98
2023-02-27T22:33:43.556Z,-3.03
2023-02-27T22:38:47.159Z,-3.09
2023-02-27T22:43:50.388Z,-3.14
2023-02-27T22:48:57.393Z,-3.12
2023-02-27T22:54:03.101Z,-3.06
2023-02-27T22:59:06.856Z,-3.08
2023-02-27T23:04:11.369Z,-3.20
2023-02-27T23:09:17.704Z,-3.22
2023-02-27T23:14:22.002Z,-3.38
2023-02-27T23:19:24.754Z,-3.42
2023-02-27T23:24:27.536Z,-3.48
2023-02-27T23:29:31.682Z,-3.57
2023-02-27T23:34:48.768Z,-3.65
2023-02-27T23:39:53.215Z,-3.64
2023-02-27T23:44:57.004Z,-3.71
2023-02-27T23:49:59.842Z,-3.73
2023-02-27T23:55:04.690Z,-3.78
